createdAt,value
2022-08-05T00:00:50.963Z,17.88
2022-08-05T00:03:21.419Z,17.82
2022-08-05T00:06:04.908Z,17.85
2022-08-05T00:08:47.471Z,17.85
2022-08-05T00:11:23.939Z,17.82
2022-08-05T00:14:12.693Z,17.85
2022-08-05T00:19:45.692Z,17.82
2022-08-05T00:22:31.914Z,17.92
2022-08-05T00:25:01.266Z,17.88
2022-08-05T00:27:36.141Z,17.90
2022-08-05T00:33:06.304Z,17.83
2022-08-05T00:36:15.198Z,17.91
2022-08-05T00:38:36.519Z,17.92
2022-08-05T00:41:14.482Z,17.91
2022-08-05T00:43:49.785Z,17.80
2022-08-05T00:49:03.414Z,17.82
2022-08-05T00:51:50.411Z,17.77
2022-08-05T00:54:22.003Z,17.80
2022-08-05T00:56:58.029Z,17.81
2022-08-05T00:59:26.126Z,17.67
2022-08-05T01:02:03.044Z,17.61
2022-08-05T01:04:32.508Z,17.56
2022-08-05T01:07:02.064Z,17.54
2022-08-05T01:09:35.389Z,17.70
2022-08-05T01:12:18.592Z,17.61
2022-08-05T01:15:04.125Z,17.64
2022-08-05T01:17:39.977Z,17.60
2022-08-05T01:20:34.580Z,17.53
2022-08-05T01:23:23.970Z,17.49
2022-08-05T01:26:35.065Z,17.53
2022-08-05T01:29:14.706Z,17.48
2022-08-05T01:31:49.026Z,17.47
2022-08-05T01:34:49.333Z,17.46
2022-08-05T01:37:44.731Z,17.44
2022-08-05T01:40:18.027Z,17.29
2022-08-05T01:42:52.692Z,17.38
2022-08-05T01:59:49.656Z,17.84
2022-08-05T02:08:31.522Z,17.63
2022-08-05T02:11:12.895Z,18.04
2022-08-05T02:14:32.110Z,17.76
2022-08-05T02:17:16.679Z,17.72
2022-08-05T02:19:54.687Z,17.77
2022-08-05T02:22:31.318Z,17.77
2022-08-05T02:25:23.260Z,18.19
2022-08-05T02:28:00.620Z,17.91
2022-08-05T02:30:54.196Z,18.08
2022-08-05T02:33:38.232Z,17.80
2022-08-05T02:36:15.905Z,17.55
2022-08-05T02:48:07.590Z,17.55
2022-08-05T02:56:29.737Z,17.34
2022-08-05T02:59:04.668Z,17.34
2022-08-05T03:01:43.811Z,17.39
2022-08-05T03:04:17.622Z,17.51
2022-08-05T03:06:59.055Z,17.42
2022-08-05T03:09:38.301Z,17.72
2022-08-05T03:12:47.950Z,17.43
2022-08-05T03:15:24.466Z,17.56
2022-08-05T03:17:59.418Z,17.36
2022-08-05T03:20:28.726Z,17.59
2022-08-05T03:22:58.512Z,17.38
2022-08-05T03:25:33.904Z,17.14
2022-08-05T03:28:18.382Z,17.04
2022-08-05T03:30:50.842Z,17.00
2022-08-05T03:33:20.087Z,16.99
2022-08-05T03:35:52.877Z,16.99
2022-08-05T03:38:33.247Z,17.03
2022-08-05T03:41:10.798Z,16.97
2022-08-05T03:44:09.870Z,17.00
2022-08-05T03:46:30.045Z,17.06
2022-08-05T03:49:03.254Z,17.15
2022-08-05T03:52:37.529Z,17.15
2022-08-05T03:55:33.969Z,17.18
2022-08-05T03:57:41.877Z,17.01
2022-08-05T04:00:17.294Z,16.99
2022-08-05T04:02:57.975Z,17.02
2022-08-05T04:05:36.163Z,17.10
2022-08-05T04:08:14.672Z,17.01
2022-08-05T04:10:59.182Z,16.96
2022-08-05T04:13:51.075Z,16.88
2022-08-05T04:16:24.985Z,16.82
2022-08-05T04:18:57.793Z,16.78
2022-08-05T04:22:08.641Z,16.75
2022-08-05T04:24:19.602Z,16.78
2022-08-05T04:26:51.617Z,16.67
2022-08-05T04:29:20.153Z,16.58
2022-08-05T04:31:49.723Z,16.52
2022-08-05T04:34:32.658Z,16.53
2022-08-05T04:37:03.534Z,16.56
2022-08-05T04:39:32.432Z,16.59
2022-08-05T04:42:04.470Z,16.59
2022-08-05T04:44:32.589Z,16.62
2022-08-05T04:47:09.766Z,16.66
2022-08-05T04:50:02.830Z,16.62
2022-08-05T04:52:28.536Z,16.57
2022-08-05T04:54:57.674Z,16.59
2022-08-05T04:57:29.289Z,16.63
2022-08-05T04:59:59.508Z,16.56
2022-08-05T05:02:36.766Z,16.57
2022-08-05T05:05:16.706Z,16.48
2022-08-05T05:08:01.728Z,16.39
2022-08-05T05:10:55.840Z,16.35
2022-08-05T05:13:25.853Z,16.46
2022-08-05T05:16:02.115Z,16.54
2022-08-05T05:18:35.598Z,16.51
2022-08-05T05:21:05.459Z,16.66
2022-08-05T05:23:39.495Z,16.70
2022-08-05T05:26:32.557Z,16.65
2022-08-05T05:29:14.506Z,16.68
2022-08-05T05:34:54.344Z,16.77
2022-08-05T05:37:29.206Z,16.93
2022-08-05T05:40:17.710Z,16.99
2022-08-05T05:42:48.873Z,16.92
2022-08-05T05:45:19.428Z,16.92
2022-08-05T05:48:06.179Z,17.12
2022-08-05T05:50:44.699Z,17.05
2022-08-05T05:53:21.111Z,16.98
2022-08-05T05:56:03.317Z,16.83
2022-08-05T05:58:33.353Z,16.88
2022-08-05T06:19:00.271Z,16.97
2022-08-05T06:21:37.506Z,16.93
2022-08-05T06:29:49.287Z,17.16
2022-08-05T06:32:25.931Z,17.32
2022-08-05T06:34:56.868Z,17.25
2022-08-05T06:37:55.547Z,17.39
2022-08-05T06:40:20.787Z,17.59
2022-08-05T06:42:52.299Z,17.82
2022-08-05T06:45:44.086Z,17.87
2022-08-05T06:48:36.741Z,17.86
2022-08-05T06:50:58.494Z,17.77
2022-08-05T06:53:29.555Z,18.44
2022-08-05T06:58:36.495Z,19.02
2022-08-05T07:01:07.587Z,19.08
2022-08-05T07:03:37.533Z,18.15
2022-08-05T07:06:14.203Z,18.56
2022-08-05T07:08:47.864Z,18.48
2022-08-05T07:11:22.172Z,18.15
2022-08-05T07:14:20.126Z,18.23
2022-08-05T07:17:59.255Z,18.25
2022-08-05T07:22:30.431Z,18.07
2022-08-05T07:25:22.460Z,18.24
2022-08-05T07:27:57.770Z,18.14
2022-08-05T07:30:38.486Z,18.41
2022-08-05T07:33:16.135Z,18.27
2022-08-05T07:36:04.850Z,18.32
2022-08-05T07:38:43.167Z,18.41
2022-08-05T07:42:06.831Z,18.31
2022-08-05T07:44:14.488Z,18.26
2022-08-05T07:46:48.536Z,18.27
2022-08-05T07:49:19.949Z,18.01
2022-08-05T07:51:54.255Z,18.07
2022-08-05T07:54:30.843Z,18.16
2022-08-05T07:57:22.754Z,18.18
2022-08-05T07:59:53.687Z,18.19
2022-08-05T08:02:31.463Z,18.00
2022-08-05T08:05:16.289Z,18.46
2022-08-05T08:07:59.473Z,18.79
2022-08-05T08:10:30.420Z,18.70
2022-08-05T08:13:01.664Z,18.74
2022-08-05T08:15:37.279Z,18.52
2022-08-05T08:18:20.771Z,18.19
2022-08-05T08:21:02.265Z,18.35
2022-08-05T08:24:01.282Z,18.70
2022-08-05T08:26:26.795Z,18.33
2022-08-05T08:30:03.267Z,18.35
2022-08-05T08:31:54.127Z,18.80
2022-08-05T08:34:30.775Z,18.88
2022-08-05T08:37:05.096Z,18.88
2022-08-05T08:39:37.825Z,18.85
2022-08-05T08:42:27.558Z,19.07
2022-08-05T08:45:17.760Z,19.24
2022-08-05T08:48:10.750Z,19.09
2022-08-05T08:51:03.700Z,18.50
2022-08-05T08:53:45.291Z,18.39
2022-08-05T08:56:13.555Z,18.32
2022-08-05T08:58:47.609Z,18.63
2022-08-05T09:01:18.536Z,18.56
2022-08-05T09:03:57.357Z,19.58
2022-08-05T09:06:30.284Z,19.73
2022-08-05T09:09:03.261Z,19.46
2022-08-05T09:11:52.612Z,19.71
2022-08-05T09:14:57.460Z,19.76
2022-08-05T09:17:40.828Z,19.03
2022-08-05T09:20:06.658Z,19.24
2022-08-05T09:23:18.734Z,19.50
2022-08-05T09:26:00.970Z,19.63
2022-08-05T09:28:33.769Z,18.90
2022-08-05T09:31:18.166Z,19.00
2022-08-05T09:33:54.559Z,18.92
2022-08-05T09:36:27.942Z,19.34
2022-08-05T09:39:18.336Z,19.38
2022-08-05T09:41:58.468Z,19.47
2022-08-05T09:44:38.892Z,19.16
2022-08-05T09:50:18.119Z,19.60
2022-08-05T09:53:02.819Z,19.65
2022-08-05T09:55:57.917Z,20.02
2022-08-05T09:58:29.703Z,20.91
2022-08-05T10:01:15.254Z,20.72
2022-08-05T10:04:10.145Z,20.41
2022-08-05T10:06:54.613Z,19.88
2022-08-05T10:09:27.443Z,19.64
2022-08-05T10:12:31.080Z,19.57
2022-08-05T10:15:17.132Z,19.45
2022-08-05T10:18:06.760Z,19.36
2022-08-05T10:20:42.299Z,19.26
2022-08-05T10:23:22.112Z,19.09
2022-08-05T10:26:13.940Z,19.08
2022-08-05T10:28:49.551Z,19.10
2022-08-05T10:32:53.843Z,19.20
2022-08-05T10:34:09.725Z,19.28
2022-08-05T10:36:42.539Z,19.44
2022-08-05T10:39:24.024Z,19.41
2022-08-05T10:42:01.018Z,19.48
2022-08-05T10:44:31.634Z,19.60
2022-08-05T10:46:59.170Z,19.46
2022-08-05T10:49:33.498Z,19.04
2022-08-05T10:52:49.429Z,19.01
2022-08-05T10:55:18.502Z,18.94
2022-08-05T10:57:46.498Z,18.97
2022-08-05T11:00:23.508Z,18.97
2022-08-05T11:03:23.274Z,18.98
2022-08-05T11:06:08.395Z,18.97
2022-08-05T11:09:13.006Z,18.73
2022-08-05T11:11:53.442Z,18.60
2022-08-05T11:17:57.402Z,19.01
2022-08-05T11:20:44.225Z,19.20
2022-08-05T11:23:33.626Z,19.35
2022-08-05T11:26:29.013Z,19.08
2022-08-05T11:29:11.860Z,19.22
2022-08-05T11:31:58.704Z,19.27
2022-08-05T11:34:51.607Z,19.50
2022-08-05T11:38:29.278Z,19.51
2022-08-05T11:41:34.367Z,19.34
2022-08-05T11:44:08.695Z,19.56
2022-08-05T11:46:58.404Z,19.59
2022-08-05T11:49:37.029Z,19.54
2022-08-05T11:52:08.846Z,19.53
2022-08-05T11:54:41.823Z,19.62
2022-08-05T11:57:24.487Z,19.38
2022-08-05T11:59:53.305Z,19.29
2022-08-05T12:02:33.006Z,19.62
2022-08-05T12:05:07.189Z,19.48
2022-08-05T12:08:08.028Z,19.70
2022-08-05T12:10:43.793Z,19.73
2022-08-05T12:13:18.540Z,20.13
2022-08-05T12:15:55.995Z,20.33
2022-08-05T12:18:38.791Z,19.93
2022-08-05T12:21:31.988Z,20.15
2022-08-05T12:24:22.368Z,19.75
2022-08-05T12:26:54.219Z,19.43
2022-08-05T12:29:28.057Z,19.40
2022-08-05T12:32:07.403Z,19.49
2022-08-05T12:34:38.053Z,19.58
2022-08-05T12:37:17.574Z,19.53
2022-08-05T12:39:51.889Z,19.50
2022-08-05T12:42:25.322Z,19.90
2022-08-05T12:45:01.799Z,20.15
2022-08-05T12:47:31.220Z,20.08
2022-08-05T12:50:03.629Z,20.53
2022-08-05T12:52:39.598Z,20.46
2022-08-05T12:55:25.828Z,20.05
2022-08-05T12:58:49.715Z,19.79
2022-08-05T13:01:59.711Z,20.01
2022-08-05T13:03:43.252Z,20.68
2022-08-05T13:06:17.783Z,21.06
2022-08-05T13:08:51.545Z,20.54
2022-08-05T13:12:02.700Z,20.87
2022-08-05T13:14:36.141Z,20.98
2022-08-05T13:17:11.100Z,21.11
2022-08-05T13:19:52.622Z,21.13
2022-08-05T13:22:29.392Z,21.84
2022-08-05T13:25:05.822Z,21.94
2022-08-05T13:27:40.153Z,22.19
2022-08-05T13:30:34.869Z,21.55
2022-08-05T13:33:01.121Z,21.34
2022-08-05T13:35:47.691Z,21.41
2022-08-05T13:40:54.206Z,21.36
2022-08-05T13:43:22.468Z,21.03
2022-08-05T13:45:50.989Z,21.53
2022-08-05T13:48:58.127Z,21.59
2022-08-05T13:51:15.887Z,22.13
2022-08-05T13:53:47.938Z,22.64
2022-08-05T13:56:19.553Z,22.57
2022-08-05T13:58:53.432Z,22.26
2022-08-05T14:01:36.290Z,22.19
2022-08-05T14:04:30.547Z,21.93
2022-08-05T14:07:26.398Z,22.15
2022-08-05T14:09:50.142Z,22.12
2022-08-05T14:12:32.787Z,22.22
2022-08-05T14:15:00.555Z,22.08
2022-08-05T14:17:33.042Z,22.02
2022-08-05T14:20:04.521Z,22.54
2022-08-05T14:22:35.758Z,22.79
2022-08-05T14:25:19.108Z,22.84
2022-08-05T14:27:51.198Z,22.54
2022-08-05T14:30:20.829Z,22.86
2022-08-05T14:32:49.577Z,22.54
2022-08-05T14:35:20.656Z,22.48
2022-08-05T14:38:35.806Z,22.20
2022-08-05T14:40:51.525Z,22.36
2022-08-05T14:43:19.719Z,22.07
2022-08-05T14:45:47.418Z,21.68
2022-08-05T14:48:32.246Z,21.36
2022-08-05T14:51:00.460Z,21.41
2022-08-05T14:53:30.391Z,21.59
2022-08-05T14:55:57.288Z,21.67
2022-08-05T14:58:24.061Z,22.48
2022-08-05T15:00:57.927Z,22.48
2022-08-05T15:03:34.075Z,22.45
2022-08-05T15:06:15.171Z,22.18
2022-08-05T15:09:01.357Z,21.74
2022-08-05T15:11:53.134Z,21.63
2022-08-05T15:14:34.907Z,22.14
2022-08-05T15:17:14.550Z,21.85
2022-08-05T15:19:59.994Z,21.50
2022-08-05T15:22:28.473Z,21.21
2022-08-05T15:24:59.501Z,21.32
2022-08-05T15:27:32.108Z,21.07
2022-08-05T15:30:04.233Z,20.88
2022-08-05T15:32:32.208Z,20.77
2022-08-05T15:34:59.333Z,20.66
2022-08-05T15:38:32.421Z,20.34
2022-08-05T15:41:01.992Z,20.19
2022-08-05T15:43:12.816Z,19.71
2022-08-05T15:45:46.857Z,19.15
2022-08-05T15:48:15.184Z,18.61
2022-08-05T15:50:43.823Z,18.52
2022-08-05T15:53:13.750Z,18.75
2022-08-05T15:56:02.558Z,18.87
2022-08-05T15:58:36.941Z,19.27
2022-08-05T16:01:17.352Z,19.28
2022-08-05T16:03:48.372Z,19.24
2022-08-05T16:06:20.783Z,19.38
2022-08-05T16:08:51.084Z,19.26
2022-08-05T16:11:42.366Z,19.06
2022-08-05T16:14:10.802Z,18.88
2022-08-05T16:16:44.524Z,19.00
2022-08-05T16:22:03.864Z,19.27
2022-08-05T16:24:40.670Z,19.54
2022-08-05T16:27:09.703Z,19.30
2022-08-05T16:29:51.020Z,18.99
2022-08-05T16:38:54.802Z,18.42
2022-08-05T16:42:15.014Z,18.49
2022-08-05T16:44:18.973Z,18.97
2022-08-05T16:46:55.684Z,19.31
2022-08-05T16:49:23.362Z,19.41
2022-08-05T16:51:51.115Z,19.34
2022-08-05T16:54:28.662Z,19.32
2022-08-05T16:56:58.874Z,19.18
2022-08-05T16:59:27.895Z,18.95
2022-08-05T17:01:57.642Z,18.89
2022-08-05T17:04:28.150Z,18.72
2022-08-05T17:07:01.835Z,18.41
2022-08-05T17:09:55.956Z,18.44
2022-08-05T17:12:18.129Z,18.55
2022-08-05T17:14:49.875Z,18.24
2022-08-05T17:17:16.753Z,18.18
2022-08-05T17:19:46.580Z,17.88
2022-08-05T17:22:25.619Z,17.88
2022-08-05T17:24:57.781Z,17.60
2022-08-05T17:27:33.731Z,17.67
2022-08-05T17:30:03.122Z,17.60
2022-08-05T17:32:32.247Z,17.34
2022-08-05T17:35:01.793Z,17.33
2022-08-05T17:37:40.362Z,17.37
2022-08-05T17:40:15.360Z,17.35
2022-08-05T17:42:50.679Z,17.10
2022-08-05T17:45:21.767Z,17.15
2022-08-05T17:47:54.923Z,17.10
2022-08-05T17:50:30.307Z,16.89
2022-08-05T17:53:04.576Z,16.80
2022-08-05T17:55:37.336Z,16.87
2022-08-05T17:58:11.278Z,16.92
2022-08-05T18:00:45.385Z,16.76
2022-08-05T18:03:55.994Z,16.60
2022-08-05T18:06:12.196Z,16.51
2022-08-05T18:08:46.206Z,16.31
2022-08-05T18:11:24.549Z,16.33
2022-08-05T18:14:06.690Z,16.37
2022-08-05T18:16:46.747Z,16.45
2022-08-05T18:19:18.784Z,16.42
2022-08-05T18:22:09.750Z,16.39
2022-08-05T18:24:41.834Z,16.16
2022-08-05T18:30:32.599Z,16.22
2022-08-05T18:33:02.525Z,16.35
2022-08-05T18:36:00.142Z,16.33
2022-08-05T18:38:26.665Z,16.33
2022-08-05T18:41:56.461Z,16.21
2022-08-05T18:44:07.966Z,16.27
2022-08-05T18:46:36.675Z,16.22
2022-08-05T18:49:44.568Z,16.19
2022-08-05T18:52:33.655Z,16.18
2022-08-05T18:55:05.281Z,16.09
2022-08-05T18:57:43.083Z,16.10
2022-08-05T19:00:20.346Z,16.13
2022-08-05T19:02:47.920Z,16.03
2022-08-05T19:06:11.319Z,16.00
2022-08-05T19:08:07.457Z,15.91
2022-08-05T19:10:42.622Z,15.77
2022-08-05T19:13:16.053Z,15.75
2022-08-05T19:15:59.323Z,15.72
2022-08-05T19:18:40.897Z,15.63
2022-08-05T19:21:08.115Z,15.50
2022-08-05T19:24:05.456Z,15.43
2022-08-05T19:26:24.883Z,15.45
2022-08-05T19:28:52.891Z,15.42
2022-08-05T19:31:34.152Z,15.41
2022-08-05T19:40:00.017Z,15.26
2022-08-05T19:42:35.915Z,15.12
2022-08-05T19:45:14.462Z,15.03
2022-08-05T19:47:43.455Z,15.01
2022-08-05T19:50:15.103Z,14.97
2022-08-05T19:52:47.827Z,14.93
2022-08-05T19:56:14.066Z,14.92
2022-08-05T19:58:29.088Z,14.86
2022-08-05T20:00:55.490Z,14.79
2022-08-05T20:03:26.703Z,14.77
2022-08-05T20:06:11.672Z,14.82
2022-08-05T20:08:47.432Z,14.75
2022-08-05T20:11:17.908Z,14.67
2022-08-05T20:13:58.152Z,14.61
2022-08-05T20:16:29.265Z,14.60
2022-08-05T20:18:57.910Z,14.57
2022-08-05T20:21:29.010Z,14.57
2022-08-05T20:23:59.513Z,14.54
2022-08-05T20:26:31.119Z,14.48
2022-08-05T20:29:00.704Z,14.46
2022-08-05T20:31:41.975Z,14.41
2022-08-05T20:34:19.978Z,14.44
2022-08-05T20:36:49.031Z,14.43
2022-08-05T20:39:18.233Z,14.47
2022-08-05T20:41:49.092Z,14.33
2022-08-05T20:44:29.968Z,14.39
2022-08-05T20:49:55.226Z,14.18
2022-08-05T20:52:24.059Z,14.30
2022-08-05T20:55:15.788Z,14.13
2022-08-05T20:57:44.438Z,14.24
2022-08-05T21:00:41.119Z,13.98
2022-08-05T21:03:09.689Z,14.06
2022-08-05T21:05:53.890Z,14.01
2022-08-05T21:08:28.067Z,14.06
2022-08-05T21:11:15.272Z,14.05
2022-08-05T21:14:16.119Z,13.97
2022-08-05T21:16:57.239Z,14.05
2022-08-05T21:25:50.445Z,14.04
2022-08-05T21:29:16.696Z,13.95
2022-08-05T21:37:29.815Z,13.83
2022-08-05T21:40:17.341Z,13.79
2022-08-05T21:46:04.183Z,13.92
2022-08-05T21:49:48.313Z,13.93
2022-08-05T21:56:01.294Z,13.84
2022-08-05T21:58:32.445Z,13.81
2022-08-05T22:01:10.631Z,13.75
2022-08-05T22:04:13.488Z,13.65
2022-08-05T22:07:02.770Z,13.62
2022-08-05T22:09:46.153Z,13.58
2022-08-05T22:16:01.240Z,13.54
2022-08-05T22:18:21.890Z,13.44
2022-08-05T22:21:19.185Z,13.40
2022-08-05T22:24:40.425Z,13.40
2022-08-05T22:28:11.039Z,13.40
2022-08-05T22:33:57.081Z,13.35
2022-08-05T22:39:18.713Z,13.18
2022-08-05T22:48:32.041Z,13.04
2022-08-05T22:52:05.050Z,13.02
2022-08-05T22:54:48.991Z,12.94
2022-08-05T22:57:50.798Z,12.99
2022-08-05T23:03:57.989Z,12.88
2022-08-05T23:06:48.693Z,12.81
2022-08-05T23:09:57.637Z,12.79
2022-08-05T23:19:08.541Z,12.77
2022-08-05T23:22:14.917Z,12.76
2022-08-05T23:25:04.363Z,12.76
2022-08-05T23:28:01.056Z,12.70
2022-08-05T23:30:53.031Z,12.66
2022-08-05T23:34:04.916Z,12.64
2022-08-05T23:36:44.321Z,12.60
2022-08-05T23:39:32.108Z,12.58
2022-08-05T23:42:29.161Z,12.55
2022-08-05T23:45:46.507Z,12.43
2022-08-05T23:48:31.885Z,12.45
2022-08-05T23:54:07.821Z,12.39
2022-08-05T23:57:03.713Z,12.30
